Terminal Aerodrome Forecast
Issued by NWS Wilmington, OH

Current Version | Previous Version | Graphics & Text | Print | Product List | Glossary On
Versions: 1 2 3 4 5 6 7 8 9 10 11 12 13 14 15 16 17 18 19 20 21 22
000
FTUS41 KILN 312300
TAFILN
TAF
KILN 312333Z 0100/0124 19005KT P6SM FEW030
     FM010400 21005KT 5SM BR BKN015
     FM010600 20005KT 2SM BR OVC006
     FM011400 21008KT 4SM BR BKN012
     FM011600 21011KT P6SM BKN025
     FM011800 21014G22KT P6SM SCT030=

USA.gov is the U.S. government's official web portal to all federal, state and local government web resources and services.